sensor_id;sensor_type;location;lat;lon;timestamp;temperature;humidity
43524;DHT22;29120;52.006;6.020;2022-08-25T00:01:29;25.10;65.90
43524;DHT22;29120;52.006;6.020;2022-08-25T00:03:56;25.00;65.70
43524;DHT22;29120;52.006;6.020;2022-08-25T00:06:22;25.00;65.60
43524;DHT22;29120;52.006;6.020;2022-08-25T00:08:48;24.90;65.60
43524;DHT22;29120;52.006;6.020;2022-08-25T00:11:17;24.90;65.50
43524;DHT22;29120;52.006;6.020;2022-08-25T00:13:45;24.90;65.50
43524;DHT22;29120;52.006;6.020;2022-08-25T00:16:13;24.90;65.50
43524;DHT22;29120;52.006;6.020;2022-08-25T00:18:40;24.90;65.40
43524;DHT22;29120;52.006;6.020;2022-08-25T00:21:07;24.90;65.40
43524;DHT22;29120;52.006;6.020;2022-08-25T00:23:33;24.80;65.50
43524;DHT22;29120;52.006;6.020;2022-08-25T00:26:00;24.70;65.50
43524;DHT22;29120;52.006;6.020;2022-08-25T00:28:25;24.70;65.50
43524;DHT22;29120;52.006;6.020;2022-08-25T00:30:51;24.70;65.50
43524;DHT22;29120;52.006;6.020;2022-08-25T00:33:17;24.70;65.60
43524;DHT22;29120;52.006;6.020;2022-08-25T00:35:43;24.60;65.60
43524;DHT22;29120;52.006;6.020;2022-08-25T00:38:10;24.60;65.60
43524;DHT22;29120;52.006;6.020;2022-08-25T00:40:38;24.50;65.60
43524;DHT22;29120;52.006;6.020;2022-08-25T00:43:04;24.50;65.70
43524;DHT22;29120;52.006;6.020;2022-08-25T00:45:31;24.50;65.70
43524;DHT22;29120;52.006;6.020;2022-08-25T00:47:57;24.40;65.60
43524;DHT22;29120;52.006;6.020;2022-08-25T00:50:23;24.40;65.60
43524;DHT22;29120;52.006;6.020;2022-08-25T00:52:52;24.40;65.60
43524;DHT22;29120;52.006;6.020;2022-08-25T00:55:32;24.40;65.70
43524;DHT22;29120;52.006;6.020;2022-08-25T00:58:12;24.30;65.60
43524;DHT22;29120;52.006;6.020;2022-08-25T01:00:44;24.30;65.60
43524;DHT22;29120;52.006;6.020;2022-08-25T01:03:11;24.30;65.60
43524;DHT22;29120;52.006;6.020;2022-08-25T01:05:38;24.20;65.60
43524;DHT22;29120;52.006;6.020;2022-08-25T01:08:07;24.20;65.50
43524;DHT22;29120;52.006;6.020;2022-08-25T01:10:35;24.10;65.50
43524;DHT22;29120;52.006;6.020;2022-08-25T01:13:09;24.10;65.50
43524;DHT22;29120;52.006;6.020;2022-08-25T01:15:36;24.10;65.50
43524;DHT22;29120;52.006;6.020;2022-08-25T01:18:02;24.10;65.50
43524;DHT22;29120;52.006;6.020;2022-08-25T01:20:29;24.00;65.40
43524;DHT22;29120;52.006;6.020;2022-08-25T01:22:57;24.00;65.40
43524;DHT22;29120;52.006;6.020;2022-08-25T01:28:25;24.00;65.30
43524;DHT22;29120;52.006;6.020;2022-08-25T01:30:50;23.90;65.30
43524;DHT22;29120;52.006;6.020;2022-08-25T01:33:17;23.90;65.30
43524;DHT22;29120;52.006;6.020;2022-08-25T01:35:43;23.90;65.30
43524;DHT22;29120;52.006;6.020;2022-08-25T01:38:11;23.90;65.20
43524;DHT22;29120;52.006;6.020;2022-08-25T01:40:37;23.90;65.20
43524;DHT22;29120;52.006;6.020;2022-08-25T01:45:38;23.80;65.20
43524;DHT22;29120;52.006;6.020;2022-08-25T01:48:05;23.80;65.20
43524;DHT22;29120;52.006;6.020;2022-08-25T01:50:31;23.70;65.20
43524;DHT22;29120;52.006;6.020;2022-08-25T01:53:17;23.80;65.20
43524;DHT22;29120;52.006;6.020;2022-08-25T01:55:43;23.70;65.20
43524;DHT22;29120;52.006;6.020;2022-08-25T01:58:21;23.60;65.20
43524;DHT22;29120;52.006;6.020;2022-08-25T02:00:49;23.60;65.20
43524;DHT22;29120;52.006;6.020;2022-08-25T02:03:15;23.60;65.20
43524;DHT22;29120;52.006;6.020;2022-08-25T02:05:42;23.60;65.30
43524;DHT22;29120;52.006;6.020;2022-08-25T02:08:08;23.60;65.30
43524;DHT22;29120;52.006;6.020;2022-08-25T02:10:34;23.50;65.20
43524;DHT22;29120;52.006;6.020;2022-08-25T02:13:00;23.50;65.30
43524;DHT22;29120;52.006;6.020;2022-08-25T02:15:26;23.50;65.30
43524;DHT22;29120;52.006;6.020;2022-08-25T02:17:51;23.50;65.30
43524;DHT22;29120;52.006;6.020;2022-08-25T02:20:17;23.50;65.30
43524;DHT22;29120;52.006;6.020;2022-08-25T02:22:43;23.40;65.20
43524;DHT22;29120;52.006;6.020;2022-08-25T02:25:09;23.40;65.30
43524;DHT22;29120;52.006;6.020;2022-08-25T02:27:35;23.40;65.30
43524;DHT22;29120;52.006;6.020;2022-08-25T02:30:01;23.40;65.20
43524;DHT22;29120;52.006;6.020;2022-08-25T02:32:26;23.40;65.20
43524;DHT22;29120;52.006;6.020;2022-08-25T02:34:52;23.40;65.10
43524;DHT22;29120;52.006;6.020;2022-08-25T02:37:17;23.40;65.00
43524;DHT22;29120;52.006;6.020;2022-08-25T02:39:43;23.50;65.00
43524;DHT22;29120;52.006;6.020;2022-08-25T02:42:08;23.40;64.90
43524;DHT22;29120;52.006;6.020;2022-08-25T02:44:34;23.50;64.80
43524;DHT22;29120;52.006;6.020;2022-08-25T02:46:59;23.50;64.70
43524;DHT22;29120;52.006;6.020;2022-08-25T02:49:25;23.50;64.70
43524;DHT22;29120;52.006;6.020;2022-08-25T02:51:51;23.50;64.70
43524;DHT22;29120;52.006;6.020;2022-08-25T02:54:16;23.50;64.60
43524;DHT22;29120;52.006;6.020;2022-08-25T02:56:42;23.50;64.50
43524;DHT22;29120;52.006;6.020;2022-08-25T02:59:07;23.50;64.50
43524;DHT22;29120;52.006;6.020;2022-08-25T03:01:33;23.50;64.40
43524;DHT22;29120;52.006;6.020;2022-08-25T03:04:00;23.50;64.30
43524;DHT22;29120;52.006;6.020;2022-08-25T03:06:26;23.50;64.30
43524;DHT22;29120;52.006;6.020;2022-08-25T03:08:53;23.50;64.40
43524;DHT22;29120;52.006;6.020;2022-08-25T03:11:20;23.50;64.30
43524;DHT22;29120;52.006;6.020;2022-08-25T03:13:45;23.40;64.30
43524;DHT22;29120;52.006;6.020;2022-08-25T03:16:16;23.40;64.40
43524;DHT22;29120;52.006;6.020;2022-08-25T03:18:42;23.30;64.40
43524;DHT22;29120;52.006;6.020;2022-08-25T03:21:09;23.30;64.40
43524;DHT22;29120;52.006;6.020;2022-08-25T03:23:36;23.20;64.50
43524;DHT22;29120;52.006;6.020;2022-08-25T03:26:01;23.20;64.60
43524;DHT22;29120;52.006;6.020;2022-08-25T03:28:46;23.20;64.60
43524;DHT22;29120;52.006;6.020;2022-08-25T03:31:11;23.10;64.70
43524;DHT22;29120;52.006;6.020;2022-08-25T03:33:37;23.10;64.70
43524;DHT22;29120;52.006;6.020;2022-08-25T03:36:04;23.10;64.70
43524;DHT22;29120;52.006;6.020;2022-08-25T03:38:29;23.10;64.80
43524;DHT22;29120;52.006;6.020;2022-08-25T03:40:55;23.10;64.80
43524;DHT22;29120;52.006;6.020;2022-08-25T03:43:21;23.10;64.80
43524;DHT22;29120;52.006;6.020;2022-08-25T03:45:47;23.10;64.80
43524;DHT22;29120;52.006;6.020;2022-08-25T03:48:14;23.10;64.80
43524;DHT22;29120;52.006;6.020;2022-08-25T03:50:48;23.00;64.80
43524;DHT22;29120;52.006;6.020;2022-08-25T03:53:14;23.00;64.80
43524;DHT22;29120;52.006;6.020;2022-08-25T03:55:39;23.00;65.00
43524;DHT22;29120;52.006;6.020;2022-08-25T03:58:05;23.00;65.00
43524;DHT22;29120;52.006;6.020;2022-08-25T04:00:31;22.90;65.00
43524;DHT22;29120;52.006;6.020;2022-08-25T04:02:56;22.90;65.10
43524;DHT22;29120;52.006;6.020;2022-08-25T04:05:22;22.80;65.10
43524;DHT22;29120;52.006;6.020;2022-08-25T04:07:47;22.80;65.30
43524;DHT22;29120;52.006;6.020;2022-08-25T04:10:13;22.70;65.30
43524;DHT22;29120;52.006;6.020;2022-08-25T04:12:38;22.70;65.50
43524;DHT22;29120;52.006;6.020;2022-08-25T04:15:05;22.60;65.60
43524;DHT22;29120;52.006;6.020;2022-08-25T04:17:32;22.50;65.70
43524;DHT22;29120;52.006;6.020;2022-08-25T04:19:58;22.50;65.80
43524;DHT22;29120;52.006;6.020;2022-08-25T04:22:24;22.40;65.90
43524;DHT22;29120;52.006;6.020;2022-08-25T04:24:49;22.40;66.00
43524;DHT22;29120;52.006;6.020;2022-08-25T04:27:15;22.40;66.10
43524;DHT22;29120;52.006;6.020;2022-08-25T04:29:40;22.30;66.30
43524;DHT22;29120;52.006;6.020;2022-08-25T04:32:06;22.30;66.30
43524;DHT22;29120;52.006;6.020;2022-08-25T04:34:32;22.20;66.50
43524;DHT22;29120;52.006;6.020;2022-08-25T04:37:00;22.20;66.60
43524;DHT22;29120;52.006;6.020;2022-08-25T04:39:27;22.10;66.60
43524;DHT22;29120;52.006;6.020;2022-08-25T04:41:52;22.10;66.70
43524;DHT22;29120;52.006;6.020;2022-08-25T04:44:18;22.10;66.80
43524;DHT22;29120;52.006;6.020;2022-08-25T04:46:43;22.10;66.90
43524;DHT22;29120;52.006;6.020;2022-08-25T04:49:09;22.00;66.90
43524;DHT22;29120;52.006;6.020;2022-08-25T04:51:39;22.00;67.00
43524;DHT22;29120;52.006;6.020;2022-08-25T04:54:09;22.00;67.10
43524;DHT22;29120;52.006;6.020;2022-08-25T04:56:35;22.00;67.20
43524;DHT22;29120;52.006;6.020;2022-08-25T04:59:07;21.90;67.20
43524;DHT22;29120;52.006;6.020;2022-08-25T05:01:33;21.90;67.20
43524;DHT22;29120;52.006;6.020;2022-08-25T05:04:01;21.90;67.30
43524;DHT22;29120;52.006;6.020;2022-08-25T05:06:28;21.90;67.30
43524;DHT22;29120;52.006;6.020;2022-08-25T05:08:54;21.90;67.40
43524;DHT22;29120;52.006;6.020;2022-08-25T05:11:21;21.90;67.30
43524;DHT22;29120;52.006;6.020;2022-08-25T05:13:48;21.90;67.40
43524;DHT22;29120;52.006;6.020;2022-08-25T05:16:14;21.90;67.40
43524;DHT22;29120;52.006;6.020;2022-08-25T05:18:40;21.90;67.50
43524;DHT22;29120;52.006;6.020;2022-08-25T05:21:11;21.90;67.40
43524;DHT22;29120;52.006;6.020;2022-08-25T05:23:37;21.90;67.30
43524;DHT22;29120;52.006;6.020;2022-08-25T05:26:18;22.00;67.40
43524;DHT22;29120;52.006;6.020;2022-08-25T05:28:45;22.00;67.40
43524;DHT22;29120;52.006;6.020;2022-08-25T05:31:13;22.00;67.30
43524;DHT22;29120;52.006;6.020;2022-08-25T05:33:40;22.00;67.20
43524;DHT22;29120;52.006;6.020;2022-08-25T05:36:07;22.00;67.10
43524;DHT22;29120;52.006;6.020;2022-08-25T05:38:34;22.10;67.00
43524;DHT22;29120;52.006;6.020;2022-08-25T05:41:06;22.10;66.90
43524;DHT22;29120;52.006;6.020;2022-08-25T05:43:36;22.20;66.70
43524;DHT22;29120;52.006;6.020;2022-08-25T05:46:02;22.40;66.30
43524;DHT22;29120;52.006;6.020;2022-08-25T05:48:27;22.60;65.70
43524;DHT22;29120;52.006;6.020;2022-08-25T05:50:55;22.80;65.30
43524;DHT22;29120;52.006;6.020;2022-08-25T05:53:22;23.00;64.70
43524;DHT22;29120;52.006;6.020;2022-08-25T05:55:49;23.40;64.10
43524;DHT22;29120;52.006;6.020;2022-08-25T05:58:15;23.70;63.40
43524;DHT22;29120;52.006;6.020;2022-08-25T06:00:41;23.90;62.70
43524;DHT22;29120;52.006;6.020;2022-08-25T06:03:07;24.10;62.30
43524;DHT22;29120;52.006;6.020;2022-08-25T06:05:32;24.40;61.90
43524;DHT22;29120;52.006;6.020;2022-08-25T06:07:58;24.70;61.40
43524;DHT22;29120;52.006;6.020;2022-08-25T06:10:24;25.00;60.60
43524;DHT22;29120;52.006;6.020;2022-08-25T06:12:50;25.40;60.00
43524;DHT22;29120;52.006;6.020;2022-08-25T06:15:18;25.60;59.50
43524;DHT22;29120;52.006;6.020;2022-08-25T06:17:45;25.90;58.90
43524;DHT22;29120;52.006;6.020;2022-08-25T06:20:14;26.20;58.30
43524;DHT22;29120;52.006;6.020;2022-08-25T06:22:40;26.30;57.80
43524;DHT22;29120;52.006;6.020;2022-08-25T06:25:07;26.50;57.50
43524;DHT22;29120;52.006;6.020;2022-08-25T06:27:34;26.80;57.00
43524;DHT22;29120;52.006;6.020;2022-08-25T06:29:59;27.30;56.30
43524;DHT22;29120;52.006;6.020;2022-08-25T06:32:33;27.90;55.70
43524;DHT22;29120;52.006;6.020;2022-08-25T06:35:07;28.30;54.70
43524;DHT22;29120;52.006;6.020;2022-08-25T06:37:34;28.00;54.60
43524;DHT22;29120;52.006;6.020;2022-08-25T06:40:00;27.50;54.70
43524;DHT22;29120;52.006;6.020;2022-08-25T06:42:26;27.10;55.50
43524;DHT22;29120;52.006;6.020;2022-08-25T06:44:51;26.80;55.80
43524;DHT22;29120;52.006;6.020;2022-08-25T06:47:17;26.60;56.20
43524;DHT22;29120;52.006;6.020;2022-08-25T06:49:43;26.50;56.50
43524;DHT22;29120;52.006;6.020;2022-08-25T06:52:09;26.40;57.20
43524;DHT22;29120;52.006;6.020;2022-08-25T06:54:35;26.40;56.60
43524;DHT22;29120;52.006;6.020;2022-08-25T06:57:01;26.30;56.60
43524;DHT22;29120;52.006;6.020;2022-08-25T06:59:27;26.40;56.80
43524;DHT22;29120;52.006;6.020;2022-08-25T07:01:53;26.40;56.90
43524;DHT22;29120;52.006;6.020;2022-08-25T07:04:19;26.40;57.00
43524;DHT22;29120;52.006;6.020;2022-08-25T07:06:44;26.50;57.00
43524;DHT22;29120;52.006;6.020;2022-08-25T07:09:11;26.60;56.80
43524;DHT22;29120;52.006;6.020;2022-08-25T07:11:39;26.70;56.70
43524;DHT22;29120;52.006;6.020;2022-08-25T07:14:06;26.70;56.50
43524;DHT22;29120;52.006;6.020;2022-08-25T07:16:32;26.70;56.50
43524;DHT22;29120;52.006;6.020;2022-08-25T07:18:59;26.80;57.00
43524;DHT22;29120;52.006;6.020;2022-08-25T07:21:27;26.90;56.30
43524;DHT22;29120;52.006;6.020;2022-08-25T07:23:53;27.00;56.30
43524;DHT22;29120;52.006;6.020;2022-08-25T07:26:24;27.00;56.00
43524;DHT22;29120;52.006;6.020;2022-08-25T07:28:50;27.20;56.00
43524;DHT22;29120;52.006;6.020;2022-08-25T07:31:16;27.30;55.60
43524;DHT22;29120;52.006;6.020;2022-08-25T07:33:42;27.40;55.50
43524;DHT22;29120;52.006;6.020;2022-08-25T07:36:28;27.60;55.50
43524;DHT22;29120;52.006;6.020;2022-08-25T07:38:53;27.70;55.20
43524;DHT22;29120;52.006;6.020;2022-08-25T07:41:19;27.80;54.90
43524;DHT22;29120;52.006;6.020;2022-08-25T07:43:45;27.90;54.60
43524;DHT22;29120;52.006;6.020;2022-08-25T07:46:11;28.00;54.40
43524;DHT22;29120;52.006;6.020;2022-08-25T07:48:37;28.10;54.20
43524;DHT22;29120;52.006;6.020;2022-08-25T07:51:11;28.20;54.10
43524;DHT22;29120;52.006;6.020;2022-08-25T07:53:37;28.40;53.90
43524;DHT22;29120;52.006;6.020;2022-08-25T07:56:09;28.50;53.50
43524;DHT22;29120;52.006;6.020;2022-08-25T07:58:35;28.70;53.40
43524;DHT22;29120;52.006;6.020;2022-08-25T08:01:00;28.80;53.10
43524;DHT22;29120;52.006;6.020;2022-08-25T08:03:26;28.90;52.90
43524;DHT22;29120;52.006;6.020;2022-08-25T08:05:51;29.00;52.50
43524;DHT22;29120;52.006;6.020;2022-08-25T08:08:20;29.10;52.30
43524;DHT22;29120;52.006;6.020;2022-08-25T08:10:46;29.20;52.20
43524;DHT22;29120;52.006;6.020;2022-08-25T08:13:11;29.30;51.90
43524;DHT22;29120;52.006;6.020;2022-08-25T08:15:41;29.40;51.70
43524;DHT22;29120;52.006;6.020;2022-08-25T08:18:07;29.60;51.70
43524;DHT22;29120;52.006;6.020;2022-08-25T08:20:33;29.70;51.70
43524;DHT22;29120;52.006;6.020;2022-08-25T08:22:59;29.90;51.50
43524;DHT22;29120;52.006;6.020;2022-08-25T08:25:24;30.10;51.20
43524;DHT22;29120;52.006;6.020;2022-08-25T08:27:50;30.30;51.00
43524;DHT22;29120;52.006;6.020;2022-08-25T08:30:16;30.40;50.80
43524;DHT22;29120;52.006;6.020;2022-08-25T08:32:41;30.50;50.20
43524;DHT22;29120;52.006;6.020;2022-08-25T08:35:08;30.50;50.20
43524;DHT22;29120;52.006;6.020;2022-08-25T08:37:34;30.60;50.30
43524;DHT22;29120;52.006;6.020;2022-08-25T08:40:03;30.60;50.30
43524;DHT22;29120;52.006;6.020;2022-08-25T08:45:24;30.80;49.80
43524;DHT22;29120;52.006;6.020;2022-08-25T08:48:38;30.80;49.90
43524;DHT22;29120;52.006;6.020;2022-08-25T08:51:47;30.90;50.00
43524;DHT22;29120;52.006;6.020;2022-08-25T08:54:18;31.00;49.80
43524;DHT22;29120;52.006;6.020;2022-08-25T08:56:47;31.10;49.70
43524;DHT22;29120;52.006;6.020;2022-08-25T08:59:16;31.30;49.50
43524;DHT22;29120;52.006;6.020;2022-08-25T09:01:53;31.70;49.30
43524;DHT22;29120;52.006;6.020;2022-08-25T09:06:52;33.40;47.50
43524;DHT22;29120;52.006;6.020;2022-08-25T09:09:33;33.80;46.70
43524;DHT22;29120;52.006;6.020;2022-08-25T09:18:10;34.60;45.00
43524;DHT22;29120;52.006;6.020;2022-08-25T09:28:47;34.90;43.70
43524;DHT22;29120;52.006;6.020;2022-08-25T09:31:19;34.80;43.90
43524;DHT22;29120;52.006;6.020;2022-08-25T09:33:46;35.00;44.00
43524;DHT22;29120;52.006;6.020;2022-08-25T09:36:12;35.20;43.90
43524;DHT22;29120;52.006;6.020;2022-08-25T09:38:37;35.50;43.40
43524;DHT22;29120;52.006;6.020;2022-08-25T09:41:03;35.80;43.30
43524;DHT22;29120;52.006;6.020;2022-08-25T09:43:33;36.30;43.10
43524;DHT22;29120;52.006;6.020;2022-08-25T09:48:33;37.20;41.70
43524;DHT22;29120;52.006;6.020;2022-08-25T09:51:33;37.50;41.40
43524;DHT22;29120;52.006;6.020;2022-08-25T10:01:53;40.00;38.70
43524;DHT22;29120;52.006;6.020;2022-08-25T10:04:30;40.50;38.60
43524;DHT22;29120;52.006;6.020;2022-08-25T10:06:57;41.00;38.10
43524;DHT22;29120;52.006;6.020;2022-08-25T10:09:53;41.40;37.90
43524;DHT22;29120;52.006;6.020;2022-08-25T10:12:40;42.00;37.10
43524;DHT22;29120;52.006;6.020;2022-08-25T10:15:21;42.10;35.80
43524;DHT22;29120;52.006;6.020;2022-08-25T10:17:48;42.00;35.80
43524;DHT22;29120;52.006;6.020;2022-08-25T10:20:19;41.60;35.80
43524;DHT22;29120;52.006;6.020;2022-08-25T10:22:45;41.60;35.90
43524;DHT22;29120;52.006;6.020;2022-08-25T10:25:16;41.70;35.70
43524;DHT22;29120;52.006;6.020;2022-08-25T10:36:34;42.20;34.70
43524;DHT22;29120;52.006;6.020;2022-08-25T10:39:02;42.40;34.70
43524;DHT22;29120;52.006;6.020;2022-08-25T10:41:53;42.60;34.60
43524;DHT22;29120;52.006;6.020;2022-08-25T10:55:44;43.30;33.00
43524;DHT22;29120;52.006;6.020;2022-08-25T11:04:12;43.80;32.80
43524;DHT22;29120;52.006;6.020;2022-08-25T11:06:46;44.00;32.60
43524;DHT22;29120;52.006;6.020;2022-08-25T11:09:19;44.00;31.90
43524;DHT22;29120;52.006;6.020;2022-08-25T11:11:48;44.20;31.90
43524;DHT22;29120;52.006;6.020;2022-08-25T11:14:39;44.30;31.40
43524;DHT22;29120;52.006;6.020;2022-08-25T11:17:15;44.70;31.20
43524;DHT22;29120;52.006;6.020;2022-08-25T11:19:48;44.50;30.60
43524;DHT22;29120;52.006;6.020;2022-08-25T11:22:29;44.40;30.60
43524;DHT22;29120;52.006;6.020;2022-08-25T11:25:10;44.50;30.70
43524;DHT22;29120;52.006;6.020;2022-08-25T11:28:01;44.50;30.80
43524;DHT22;29120;52.006;6.020;2022-08-25T11:30:28;44.50;30.70
43524;DHT22;29120;52.006;6.020;2022-08-25T11:32:54;44.40;31.00
43524;DHT22;29120;52.006;6.020;2022-08-25T11:35:48;44.80;31.20
43524;DHT22;29120;52.006;6.020;2022-08-25T11:49:58;45.30;30.30
43524;DHT22;29120;52.006;6.020;2022-08-25T11:52:46;45.00;30.00
43524;DHT22;29120;52.006;6.020;2022-08-25T11:55:30;44.90;30.00
43524;DHT22;29120;52.006;6.020;2022-08-25T11:58:30;45.10;30.60
43524;DHT22;29120;52.006;6.020;2022-08-25T12:00:59;45.50;30.30
43524;DHT22;29120;52.006;6.020;2022-08-25T12:06:24;46.00;30.00
43524;DHT22;29120;52.006;6.020;2022-08-25T12:27:30;46.00;29.80
43524;DHT22;29120;52.006;6.020;2022-08-25T12:30:19;45.90;29.70
43524;DHT22;29120;52.006;6.020;2022-08-25T12:32:58;46.00;29.90
43524;DHT22;29120;52.006;6.020;2022-08-25T12:35:50;46.10;29.70
43524;DHT22;29120;52.006;6.020;2022-08-25T12:38:33;46.10;29.50
43524;DHT22;29120;52.006;6.020;2022-08-25T12:41:12;46.10;29.50
43524;DHT22;29120;52.006;6.020;2022-08-25T12:43:41;46.10;29.40
43524;DHT22;29120;52.006;6.020;2022-08-25T12:48:59;46.30;29.30
43524;DHT22;29120;52.006;6.020;2022-08-25T12:51:27;46.40;29.10
43524;DHT22;29120;52.006;6.020;2022-08-25T12:55:03;46.20;29.10
43524;DHT22;29120;52.006;6.020;2022-08-25T12:59:41;46.10;29.10
43524;DHT22;29120;52.006;6.020;2022-08-25T13:02:43;46.10;28.90
43524;DHT22;29120;52.006;6.020;2022-08-25T13:10:32;45.40;29.10
43524;DHT22;29120;52.006;6.020;2022-08-25T13:13:36;45.40;28.90
43524;DHT22;29120;52.006;6.020;2022-08-25T13:16:08;45.50;29.60
43524;DHT22;29120;52.006;6.020;2022-08-25T13:18:39;45.60;29.10
43524;DHT22;29120;52.006;6.020;2022-08-25T13:21:18;45.70;29.10
43524;DHT22;29120;52.006;6.020;2022-08-25T13:23:47;45.60;28.90
43524;DHT22;29120;52.006;6.020;2022-08-25T13:26:25;45.50;28.90
43524;DHT22;29120;52.006;6.020;2022-08-25T13:31:32;44.50;29.40
43524;DHT22;29120;52.006;6.020;2022-08-25T13:34:01;44.00;29.70
43524;DHT22;29120;52.006;6.020;2022-08-25T13:36:30;43.80;29.80
43524;DHT22;29120;52.006;6.020;2022-08-25T13:39:23;43.80;29.80
43524;DHT22;29120;52.006;6.020;2022-08-25T13:41:52;43.90;29.80
43524;DHT22;29120;52.006;6.020;2022-08-25T13:44:20;44.30;30.00
43524;DHT22;29120;52.006;6.020;2022-08-25T13:46:46;44.60;30.00
43524;DHT22;29120;52.006;6.020;2022-08-25T13:49:24;44.80;29.70
43524;DHT22;29120;52.006;6.020;2022-08-25T13:51:53;44.70;29.20
43524;DHT22;29120;52.006;6.020;2022-08-25T13:54:34;44.30;29.10
43524;DHT22;29120;52.006;6.020;2022-08-25T13:57:16;43.70;29.20
43524;DHT22;29120;52.006;6.020;2022-08-25T13:59:49;43.50;29.50
43524;DHT22;29120;52.006;6.020;2022-08-25T14:02:43;43.40;29.50
43524;DHT22;29120;52.006;6.020;2022-08-25T14:05:10;42.90;29.40
43524;DHT22;29120;52.006;6.020;2022-08-25T14:07:36;42.80;29.90
43524;DHT22;29120;52.006;6.020;2022-08-25T14:10:30;42.80;29.80
43524;DHT22;29120;52.006;6.020;2022-08-25T14:15:50;42.80;29.90
43524;DHT22;29120;52.006;6.020;2022-08-25T14:18:30;42.80;30.00
43524;DHT22;29120;52.006;6.020;2022-08-25T14:20:57;42.70;30.00
43524;DHT22;29120;52.006;6.020;2022-08-25T14:23:25;42.70;30.00
43524;DHT22;29120;52.006;6.020;2022-08-25T14:25:53;42.80;29.90
43524;DHT22;29120;52.006;6.020;2022-08-25T14:28:24;42.60;29.80
43524;DHT22;29120;52.006;6.020;2022-08-25T14:30:55;42.40;29.80
43524;DHT22;29120;52.006;6.020;2022-08-25T14:33:27;42.30;29.90
43524;DHT22;29120;52.006;6.020;2022-08-25T14:35:57;42.20;29.80
43524;DHT22;29120;52.006;6.020;2022-08-25T14:38:23;42.10;29.60
43524;DHT22;29120;52.006;6.020;2022-08-25T14:40:50;42.00;29.20
43524;DHT22;29120;52.006;6.020;2022-08-25T14:43:16;41.50;29.40
43524;DHT22;29120;52.006;6.020;2022-08-25T14:45:45;41.20;29.80
43524;DHT22;29120;52.006;6.020;2022-08-25T14:48:22;41.20;30.10
43524;DHT22;29120;52.006;6.020;2022-08-25T14:50:49;41.30;30.30
43524;DHT22;29120;52.006;6.020;2022-08-25T14:53:14;41.40;30.20
43524;DHT22;29120;52.006;6.020;2022-08-25T14:55:40;41.40;30.10
43524;DHT22;29120;52.006;6.020;2022-08-25T14:58:06;41.50;30.10
43524;DHT22;29120;52.006;6.020;2022-08-25T15:00:36;41.60;30.00
43524;DHT22;29120;52.006;6.020;2022-08-25T15:03:04;41.40;29.90
43524;DHT22;29120;52.006;6.020;2022-08-25T15:05:29;41.40;29.50
43524;DHT22;29120;52.006;6.020;2022-08-25T15:07:56;40.90;29.60
43524;DHT22;29120;52.006;6.020;2022-08-25T15:10:41;40.70;30.20
43524;DHT22;29120;52.006;6.020;2022-08-25T15:13:06;40.50;30.50
43524;DHT22;29120;52.006;6.020;2022-08-25T15:15:40;40.30;30.70
43524;DHT22;29120;52.006;6.020;2022-08-25T15:18:07;39.90;30.70
43524;DHT22;29120;52.006;6.020;2022-08-25T15:20:33;39.60;31.10
43524;DHT22;29120;52.006;6.020;2022-08-25T15:22:59;39.30;31.10
43524;DHT22;29120;52.006;6.020;2022-08-25T15:25:25;38.70;30.80
43524;DHT22;29120;52.006;6.020;2022-08-25T15:27:51;38.00;31.30
43524;DHT22;29120;52.006;6.020;2022-08-25T15:30:16;37.50;31.80
43524;DHT22;29120;52.006;6.020;2022-08-25T15:32:42;37.40;32.30
43524;DHT22;29120;52.006;6.020;2022-08-25T15:35:08;37.30;32.40
43524;DHT22;29120;52.006;6.020;2022-08-25T15:37:34;37.20;32.80
43524;DHT22;29120;52.006;6.020;2022-08-25T15:40:00;37.00;33.00
43524;DHT22;29120;52.006;6.020;2022-08-25T15:42:26;36.90;33.20
43524;DHT22;29120;52.006;6.020;2022-08-25T15:44:52;36.70;33.30
43524;DHT22;29120;52.006;6.020;2022-08-25T15:47:18;36.60;33.50
43524;DHT22;29120;52.006;6.020;2022-08-25T15:49:44;36.40;33.30
43524;DHT22;29120;52.006;6.020;2022-08-25T15:52:09;36.10;33.40
43524;DHT22;29120;52.006;6.020;2022-08-25T15:54:36;35.90;33.70
43524;DHT22;29120;52.006;6.020;2022-08-25T15:57:02;35.80;34.00
43524;DHT22;29120;52.006;6.020;2022-08-25T15:59:28;35.70;34.10
43524;DHT22;29120;52.006;6.020;2022-08-25T16:01:53;35.60;34.20
43524;DHT22;29120;52.006;6.020;2022-08-25T16:04:21;35.50;34.10
43524;DHT22;29120;52.006;6.020;2022-08-25T16:06:47;35.20;34.30
43524;DHT22;29120;52.006;6.020;2022-08-25T16:09:12;35.10;34.80
43524;DHT22;29120;52.006;6.020;2022-08-25T16:11:38;35.10;35.00
43524;DHT22;29120;52.006;6.020;2022-08-25T16:14:04;35.10;35.10
43524;DHT22;29120;52.006;6.020;2022-08-25T16:16:30;35.10;35.10
43524;DHT22;29120;52.006;6.020;2022-08-25T16:18:56;35.00;35.10
43524;DHT22;29120;52.006;6.020;2022-08-25T16:21:26;35.00;35.20
43524;DHT22;29120;52.006;6.020;2022-08-25T16:23:53;34.90;35.40
43524;DHT22;29120;52.006;6.020;2022-08-25T16:26:20;34.90;35.50
43524;DHT22;29120;52.006;6.020;2022-08-25T16:28:45;34.90;35.70
43524;DHT22;29120;52.006;6.020;2022-08-25T16:31:12;34.90;35.90
43524;DHT22;29120;52.006;6.020;2022-08-25T16:33:39;34.90;36.10
43524;DHT22;29120;52.006;6.020;2022-08-25T16:36:10;34.90;36.20
43524;DHT22;29120;52.006;6.020;2022-08-25T16:38:37;34.80;35.90
43524;DHT22;29120;52.006;6.020;2022-08-25T16:41:07;34.80;36.00
43524;DHT22;29120;52.006;6.020;2022-08-25T16:43:33;34.70;35.90
43524;DHT22;29120;52.006;6.020;2022-08-25T16:46:03;34.60;36.00
43524;DHT22;29120;52.006;6.020;2022-08-25T16:48:29;34.50;36.00
43524;DHT22;29120;52.006;6.020;2022-08-25T16:50:56;34.40;35.90
43524;DHT22;29120;52.006;6.020;2022-08-25T16:53:22;34.30;35.60
43524;DHT22;29120;52.006;6.020;2022-08-25T16:56:07;34.20;35.90
43524;DHT22;29120;52.006;6.020;2022-08-25T16:58:33;34.20;36.20
43524;DHT22;29120;52.006;6.020;2022-08-25T17:01:05;34.10;36.90
43524;DHT22;29120;52.006;6.020;2022-08-25T17:03:32;34.00;36.10
43524;DHT22;29120;52.006;6.020;2022-08-25T17:05:58;34.00;36.20
43524;DHT22;29120;52.006;6.020;2022-08-25T17:08:24;33.80;36.00
43524;DHT22;29120;52.006;6.020;2022-08-25T17:10:53;33.70;36.40
43524;DHT22;29120;52.006;6.020;2022-08-25T17:13:19;33.60;36.40
43524;DHT22;29120;52.006;6.020;2022-08-25T17:15:46;33.50;36.40
43524;DHT22;29120;52.006;6.020;2022-08-25T17:18:15;33.50;37.00
43524;DHT22;29120;52.006;6.020;2022-08-25T17:20:42;33.50;37.10
43524;DHT22;29120;52.006;6.020;2022-08-25T17:23:09;33.40;37.20
43524;DHT22;29120;52.006;6.020;2022-08-25T17:25:36;33.40;37.40
43524;DHT22;29120;52.006;6.020;2022-08-25T17:28:02;33.40;37.20
43524;DHT22;29120;52.006;6.020;2022-08-25T17:30:28;33.30;37.20
43524;DHT22;29120;52.006;6.020;2022-08-25T17:32:54;33.30;37.20
43524;DHT22;29120;52.006;6.020;2022-08-25T17:35:20;33.20;37.50